Flight Track Log - Related Links

Times and Time Zones

All times are in EDT time to prevent confusion due to time zone crossing. See the SWA1688 flight status page for this flight to view local times or setup timezone preferences in your user account.

Time Position Orientation Groundspeed Altitude Reporting Facility
EDT Latitude Longitude Course Direction KTS MPH feet Rate Location/Type
Thu 09:34:39 PM 28.4167 -81.3000 196° South 156 180 500  Level Orlando TRACON
Thu 09:35:51 PM 28.3667 -81.3167 196° South 210 242 3,200 2,619 Climbing Orlando TRACON
Thu 09:36:45 PM 28.3167 -81.3667 221° Southwest 216 249 6,000 2,889 Climbing Orlando TRACON
Thu 09:37:39 PM 28.3667 -81.4000 330° Northwest 273 314 8,400 2,933 Climbing Orlando TRACON
Thu 09:39:45 PM 28.5297 -81.4322 350° North 323 372 14,800 3,194 Climbing Jacksonville Center
Thu 09:40:45 PM 28.6278 -81.4356 358° North 337 388 18,300 3,050 Climbing Jacksonville Center
Thu 09:41:45 PM 28.7322 -81.4411 357° North 353 406 20,900 2,800 Climbing Jacksonville Center
Thu 09:42:45 PM 28.8431 -81.4467 357° North 375 432 23,900 2,550 Climbing Jacksonville Center
Thu 09:43:45 PM 28.9558 -81.4522 358° North 392 451 26,000 1,050 Climbing Jacksonville Center
Thu 09:44:45 PM 29.0706 -81.4578 358° North 402 463 26,000 700 Level Jacksonville Center
Thu 09:45:45 PM 29.1856 -81.4631 358° North 408 470 27,400 1,750 Climbing Jacksonville Center
Thu 09:46:45 PM 29.3150 -81.4708 357° North 414 476 29,500 1,900 Climbing Jacksonville Center
Thu 09:47:45 PM 29.4422 -81.4736 359° North 430 495 31,200 1,736 Climbing Jacksonville Center
Thu 09:48:46 PM 29.5678 -81.4814 357° North 441 507 33,000 1,850 Climbing Jacksonville Center
Thu 09:49:45 PM 29.6950 -81.4844 359° North 448 516 34,900 1,966 Climbing Jacksonville Center
Thu 09:50:45 PM 29.8183 -81.4897 358° North 448 516 36,900 1,736 Climbing Jacksonville Center
Thu 09:51:46 PM 29.9414 -81.4758 North 443 510 38,400 1,240 Climbing Jacksonville Center
Thu 09:52:46 PM 30.0517 -81.4431 14° North 443 510 39,400 1,059 Climbing Jacksonville Center
Thu 09:53:45 PM 30.1700 -81.3908 21° North 448 516 40,500 807 Climbing Jacksonville Center
Thu 09:54:45 PM 30.2883 -81.3386 21° North 453 521 41,000 250 Climbing Jacksonville Center
Thu 09:55:45 PM 30.4047 -81.2886 20° North 448 516 41,000  Level Jacksonville Center
Thu 09:56:46 PM 30.5189 -81.2408 20° North 442 509 41,000  Level Jacksonville Center
Thu 09:57:45 PM 30.6353 -81.1928 20° North 442 509 41,000  Level Jacksonville Center
Thu 09:58:45 PM 30.7494 -81.1425 21° North 442 509 41,000  Level Jacksonville Center
Thu 09:59:45 PM 30.8633 -81.0919 21° North 442 509 41,000  Level Jacksonville Center
Thu 10:00:46 PM 30.9797 -81.0436 20° North 442 509 41,000  Level Jacksonville Center
Thu 10:01:45 PM 31.0958 -80.9953 20° North 442 509 41,000  Level Jacksonville Center
Thu 10:02:45 PM 31.2119 -80.9444 21° North 442 509 41,000  Level Jacksonville Center
Thu 10:03:45 PM 31.3303 -80.8933 20° North 442 509 41,000  Level Jacksonville Center
Thu 10:04:45 PM 31.4442 -80.8372 23° Northeast 447 514 41,000  Level Jacksonville Center
Thu 10:05:45 PM 31.5747 -80.7808 20° North 441 507 41,000  Level Jacksonville Center
Thu 10:06:45 PM 31.6764 -80.7369 20° North 441 507 41,000  Level Jacksonville Center
Thu 10:07:45 PM 31.8047 -80.6803 21° North 447 514 41,000  Level Jacksonville Center
Thu 10:08:45 PM 31.9228 -80.6283 20° North 446 513 41,000  Level Jacksonville Center
Thu 10:09:46 PM 32.0306 -80.5842 19° North 446 513 41,000  Level Jacksonville Center
Thu 10:10:45 PM 32.1467 -80.5272 23° Northeast 446 513 41,000  Level Jacksonville Center
Thu 10:11:45 PM 32.2667 -80.4750 20° North 446 513 41,000  Level Jacksonville Center
Thu 10:12:46 PM 32.3867 -80.4203 21° North 446 513 41,000  Level Jacksonville Center
Thu 10:13:45 PM 32.5067 -80.3675 20° North 446 513 41,000  Level Jacksonville Center
Thu 10:14:45 PM 32.6244 -80.3125 21° North 446 513 41,000  Level Jacksonville Center
Thu 10:15:45 PM 32.7444 -80.2572 21° North 446 513 41,000  Level Jacksonville Center
Thu 10:16:45 PM 32.8644 -80.2019 21° North 446 513 41,000  Level Jacksonville Center
Thu 10:17:45 PM 32.9864 -80.1461 21° North 454 522 41,000  Level Jacksonville Center
Thu 10:18:45 PM 33.1083 -80.0903 21° North 454 522 41,000  Level Jacksonville Center
Thu 10:19:45 PM 33.2425 -80.0292 21° North 468 539 41,000  Level Jacksonville Center
Thu 10:20:45 PM 33.3603 -79.9781 20° North 455 524 41,000  Level Jacksonville Center
Thu 10:21:46 PM 33.4781 -79.9244 21° North 455 524 41,000  Level Jacksonville Center
Thu 10:22:45 PM 33.5978 -79.8681 21° North 455 524 41,000  Level Jacksonville Center
Thu 10:23:46 PM 33.7217 -79.8114 21° North 455 524 41,000  Level Jacksonville Center
Thu 10:24:45 PM 33.8392 -79.7547 22° Northeast 460 529 41,000  Level Jacksonville Center
Thu 10:25:45 PM 33.9628 -79.6978 21° North 466 536 41,000  Level Jacksonville Center
Thu 10:26:45 PM 34.0867 -79.6431 20° North 466 536 41,000  Level Jacksonville Center
Thu 10:27:46 PM 34.2083 -79.5858 21° North 466 536 41,000  Level Jacksonville Center
Thu 10:29:25 PM 34.3939 -79.4956 22° Northeast 469 540 41,000  Level Washington Center
Thu 10:30:26 PM 34.5169 -79.4383 21° North 474 545 41,000  Level Washington Center
Thu 10:31:26 PM 34.6397 -79.3783 22° Northeast 474 545 41,000  Level Washington Center
Thu 10:32:26 PM 34.7647 -79.3211 21° North 474 545 41,000  Level Washington Center
Thu 10:33:24 PM 34.8875 -79.2633 21° North 474 545 41,000  Level Washington Center
Thu 10:34:24 PM 35.0125 -79.2031 22° Northeast 474 545 41,000  Level Washington Center
Thu 10:35:25 PM 35.1353 -79.1450 21° North 479 551 41,000  Level Washington Center
Thu 10:36:25 PM 35.2600 -79.0869 21° North 479 551 41,000  Level Washington Center
Thu 10:37:26 PM 35.3869 -79.0264 21° North 479 551 41,000  Level Washington Center
Thu 10:38:24 PM 35.5019 -78.9419 31° Northeast 474 545 41,000  Level Washington Center
Thu 10:39:25 PM 35.6133 -78.8444 35° Northeast 479 551 41,000  Level Washington Center
Thu 10:40:26 PM 35.7369 -78.7394 35° Northeast 484 557 41,000  Level Washington Center
Thu 10:41:27 PM 35.8461 -78.6389 37° Northeast 489 563 41,000  Level Washington Center
Thu 10:42:25 PM 35.9592 -78.5406 35° Northeast 489 563 41,000  Level Washington Center
Thu 10:43:26 PM 36.0700 -78.4419 36° Northeast 489 563 41,000  Level Washington Center
Thu 10:44:26 PM 36.1808 -78.3428 36° Northeast 489 563 41,000  Level Washington Center
Thu 10:45:27 PM 36.2894 -78.2436 36° Northeast 484 557 41,000  Level Washington Center
Thu 10:46:25 PM 36.3786 -78.1692 34° Northeast 484 557 41,000  Level Washington Center
Thu 10:47:26 PM 36.4958 -78.0594 37° Northeast 484 557 41,000  Level Washington Center
Thu 10:48:26 PM 36.6042 -77.9619 36° Northeast 484 557 41,000  Level Washington Center
Thu 10:49:24 PM 36.7103 -77.8642 36° Northeast 484 557 41,000  Level Washington Center
Thu 10:50:25 PM 36.8314 -77.7561 36° Northeast 484 557 41,000  Level Washington Center
Thu 10:51:25 PM 36.9394 -77.6553 37° Northeast 484 557 41,000  Level Washington Center
Thu 10:52:27 PM 37.0497 -77.5567 36° Northeast 484 557 41,000  Level Washington Center
Thu 10:53:24 PM 37.1597 -77.4578 36° Northeast 484 557 41,000  Level Washington Center
Thu 10:54:24 PM 37.2697 -77.3561 36° Northeast 484 557 41,000  Level Washington Center
Thu 10:55:24 PM 37.3794 -77.2592 35° Northeast 484 557 41,000  Level Washington Center
Thu 10:56:25 PM 37.4894 -77.1467 39° Northeast 484 557 41,000  Level Washington Center
Thu 10:57:26 PM 37.5928 -77.0594 34° Northeast 489 563 41,000  Level Washington Center
Thu 10:58:25 PM 37.7025 -76.9542 37° Northeast 494 568 41,000  Level Washington Center
Thu 10:59:25 PM 37.8100 -76.8508 37° Northeast 494 568 41,000  Level Washington Center
Thu 11:00:26 PM 37.9175 -76.7500 36° Northeast 488 562 41,000  Level Washington Center
Thu 11:01:26 PM 38.0267 -76.6461 37° Northeast 488 562 41,000  Level Washington Center
Thu 11:02:24 PM 38.1361 -76.5447 36° Northeast 488 562 41,000  Level Washington Center
Thu 11:03:24 PM 38.2472 -76.4406 36° Northeast 488 562 41,000  Level Washington Center
Thu 11:04:25 PM 38.3628 -76.3278 37° Northeast 477 549 41,000  Level Washington Center
Thu 11:05:25 PM 38.4758 -76.2256 35° Northeast 482 555 41,000  Level Washington Center
Thu 11:06:26 PM 38.5786 -76.1333 35° Northeast 496 571 41,000  Level Washington Center
Thu 11:07:27 PM 38.6894 -76.0278 37° Northeast 501 577 41,000  Level Washington Center
Thu 11:08:24 PM 38.8003 -75.9247 36° Northeast 496 571 41,000  Level Washington Center
Thu 11:09:25 PM 38.9111 -75.8183 37° Northeast 496 571 41,000  Level Washington Center
Thu 11:10:26 PM 39.0217 -75.7200 35° Northeast 491 565 41,000  Level Washington Center
Thu 11:11:24 PM 39.1300 -75.6156 37° Northeast 491 565 41,000  Level Washington Center
Thu 11:12:26 PM 39.2342 -75.5058 39° Northeast 485 558 41,000  Level Washington Center
Thu 11:13:24 PM 39.3403 -75.3983 38° Northeast 485 558 41,000 -504 Level Washington Center
Thu 11:14:25 PM 39.4486 -75.2906 38° Northeast 485 558 40,000 -1,180 Descending Washington Center
Thu 11:15:26 PM 39.5544 -75.1769 40° Northeast 485 558 38,600 -1,475 Descending Washington Center
Thu 11:16:27 PM 39.6769 -75.0497 39° Northeast 490 564 37,000 -1,049 Descending Washington Center
Thu 11:18:52 PM 39.9458 -74.7700 39° Northeast 498 573 35,000 -583 Descending New York Center
Thu 11:19:53 PM 40.0317 -74.6314 51° Northeast 493 567 35,000 -298 Level New York Center
Thu 11:20:53 PM 40.1172 -74.4950 51° Northeast 493 567 34,400 -807 Descending New York Center
Thu 11:21:52 PM 40.2089 -74.3639 48° Northeast 493 567 33,400 -966 Descending New York Center
Thu 11:22:51 PM 40.3286 -74.2614 33° Northeast 487 560 32,500 -958 Descending New York Center
Thu 11:23:51 PM 40.4464 -74.1581 34° Northeast 492 566 31,500 -1,857 Descending New York Center
Thu 11:25:39 PM 40.6328 -74.0044 32° Northeast 504 580 27,300 -2,607 Descending Boston Center
Thu 11:26:39 PM 40.7697 -73.8869 33° Northeast 498 573 24,200 -1,650 Descending Boston Center
Thu 11:27:39 PM 40.8650 -73.7739 42° Northeast 478 550 24,000 -182 Descending Boston Center
Thu 11:28:51 PM 40.9558 -73.6575 44° Northeast 454 522 23,800 -455 Descending Boston Center
Thu 11:29:51 PM 41.0861 -73.5636 29° Northeast 443 510 23,000 -400 Descending Boston Center
Thu 11:30:51 PM 41.2053 -73.5272 13° North 433 498 23,000 -450 Level Boston Center
Thu 11:31:51 PM 41.3239 -73.5292 359° North 421 484 22,100 -1,000 Descending Boston Center
Thu 11:32:51 PM 41.4469 -73.5283 360° North 426 490 21,000 -909 Descending Boston Center
Thu 11:34:03 PM 41.5636 -73.5306 359° North 426 490 20,100 -909 Descending Boston Center
Thu 11:35:03 PM 41.6928 -73.5381 358° North 420 483 19,000 -1,650 Descending Boston Center
Thu 11:36:03 PM 41.8175 -73.5683 350° North 420 483 16,800 -2,231 Descending Boston Center
Thu 11:36:21 PM 41.8508 -73.5772 349° North 409 471 16,100 -2,100 Descending Boston Center
Thu 11:37:03 PM 41.9131 -73.5922 350° North 401 461 14,700 -2,235 Descending Boston Center
Thu 11:38:03 PM 42.0294 -73.6222 349° North 386 444 12,300 -1,850 Descending Boston Center
Thu 11:39:03 PM 42.1208 -73.6492 348° North 381 438 11,000 -756 Descending Boston Center
Thu 11:40:18 PM 42.2519 -73.6769 351° North 351 404 10,600 -500 Descending Boston Center
Thu 11:41:03 PM 42.3100 -73.6950 347° North 357 411 10,000 -1,100 Descending Boston Center
Thu 11:41:18 PM 42.3392 -73.7011 351° North 317 365 9,500 -1,500 Descending Boston Center
Thu 11:42:03 PM 42.3972 -73.7250 343° North 304 350 8,500 -1,377 Descending Boston Center
Thu 11:42:19 PM 42.4158 -73.7367 335° Northwest 287 330 8,100 -1,352 Descending Boston Center
Thu 11:43:14 PM 42.4822 -73.7772 336° Northwest 282 325 6,900 -1,385 Descending Boston Center
Thu 11:44:03 PM 42.5272 -73.8319 318° Northwest 274 315 5,700 -1,046 Descending Boston Center
Thu 11:45:03 PM 42.5917 -73.8531 346° North 261 300 5,000 -650 Descending Boston Center
Thu 11:46:03 PM 42.6581 -73.8769 345° North 248 285 4,400 -550 Descending Boston Center
Thu 11:47:03 PM 42.7206 -73.8869 353° North 238 274 3,900 -700 Descending Boston Center
Thu 11:48:03 PM 42.7767 -73.8856 North 220 253 3,000 -700 Descending Boston Center
Thu 11:49:03 PM 42.8350 -73.8869 359° North 211 243 2,500 -375 Descending Boston Center
Thu 11:49:23 PM 42.8539 -73.8900 353° North 194 223 2,500  Level Boston Center
Thu 11:50:03 PM 42.8892 -73.8881 North 186 214 2,500  Level Boston Center
Thu 11:50:24 PM 42.9081 -73.8831 11° North 197 227 2,500  Level Boston Center
Thu 11:51:03 PM 42.9150 -73.8406 77° East 150 173 2,500 -448 Level Boston Center
Thu 11:51:31 PM 42.9006 -73.8233 139° Southeast 175 201 2,000 -409 Descending Boston Center
Thu 11:52:31 PM 42.8464 -73.8136 173° South 168 193 1,900 -397 Descending Boston Center
Thu 11:53:32 PM 42.8089 -73.8100 176° South 144 166 1,200 -645 Descending Boston Center
Thu 11:54:32 PM 42.7736 -73.8064 176° South 114 131 600 -600 Descending Boston Center
Thu 11:55:58 PM 42.7491 -73.8020 176° South  Level Estimated
Fri 12:02:00 AM 42.7491 -73.8020 176° South  Level Estimated

Login

Don't have an account? Register now (free) for customized features, flight alerts, and more!